Time;durP1;ratioP1;P1;durP2;ratioP2;P2;SDS_P1;SDS_P2;PMS_P1;PMS_P2;Temp;Humidity;BMP_temperature;BMP_pressure;BME280_temperature;BME280_humidity;BME280_pressure;Samples;Min_cycle;Max_cycle;Signal;HPM_P1;HPM_P2
2022/08/18 00:01:24;;;;;;;14.30;9.35;;;18.90;99.90;;;19.54;100.00;99113.03;5019069;28;129997;-72
2022/08/18 00:03:54;;;;;;;12.82;9.57;;;18.90;99.90;;;19.57;100.00;99112.28;5003182;28;121761;-73
2022/08/18 00:06:22;;;;;;;13.65;9.93;;;18.80;99.90;;;19.61;100.00;99110.34;5004060;28;121008;-74
2022/08/18 00:08:51;;;;;;;16.48;10.30;;;18.80;99.90;;;19.62;100.00;99113.88;4999620;28;129912;-72
2022/08/18 00:11:20;;;;;;;15.38;10.52;;;18.90;99.90;;;19.60;100.00;99114.28;4968759;28;129356;-73
2022/08/18 00:13:49;;;;;;;14.63;9.90;;;19.00;99.90;;;19.63;100.00;99116.25;5002846;28;119476;-73
2022/08/18 00:16:17;;;;;;;13.20;9.57;;;19.10;99.90;;;19.67;100.00;99117.09;5002721;28;119320;-73
2022/08/18 00:18:46;;;;;;;15.45;10.43;;;19.20;99.90;;;19.67;100.00;99117.09;5002473;28;129910;-72
2022/08/18 00:21:16;;;;;;;15.70;10.07;;;19.20;99.90;;;19.64;100.00;99120.59;5018118;28;129989;-73
2022/08/18 00:23:45;;;;;;;15.07;10.50;;;19.20;99.90;;;19.70;100.00;99132.06;5018054;28;119764;-73
2022/08/18 00:26:14;;;;;;;15.73;10.57;;;19.10;99.90;;;19.70;100.00;99132.84;5002805;28;119364;-73
2022/08/18 00:28:43;;;;;;;15.55;10.27;;;19.10;99.90;;;19.71;100.00;99131.69;5000904;28;130258;-73
2022/08/18 00:31:11;;;;;;;14.38;10.63;;;19.10;99.90;;;19.67;100.00;99125.34;5001962;28;129450;-73
2022/08/18 00:33:42;;;;;;;14.60;9.77;;;19.00;99.90;;;19.64;100.00;99123.34;5001967;28;119693;-73
2022/08/18 00:36:12;;;;;;;12.98;9.82;;;19.00;99.90;;;19.63;100.00;99127.28;5020982;28;119096;-73
2022/08/18 00:38:42;;;;;;;15.45;9.70;;;19.00;99.90;;;19.64;100.00;99128.84;4999881;28;130461;-73
2022/08/18 00:41:11;;;;;;;12.95;10.10;;;18.90;99.90;;;19.66;100.00;99132.00;5002129;28;130119;-74
2022/08/18 00:43:45;;;;;;;17.67;10.60;;;18.90;99.90;;;19.67;100.00;99135.56;4987324;28;119648;-73
2022/08/18 00:46:18;;;;;;;15.82;10.52;;;18.80;99.90;;;19.66;100.00;99128.47;5002564;28;119511;-73
2022/08/18 00:48:48;;;;;;;15.30;11.38;;;18.70;99.90;;;19.60;100.00;99127.25;5003332;28;130010;-75
2022/08/18 00:51:22;;;;;;;15.50;11.18;;;18.70;99.90;;;19.53;100.00;99128.00;5001878;28;129661;-74
2022/08/18 00:54:00;;;;;;;15.05;11.15;;;18.70;99.90;;;19.46;100.00;99123.22;4986208;28;121022;-73
2022/08/18 00:56:34;;;;;;;16.50;11.48;;;18.70;99.90;;;19.39;100.00;99134.94;4987328;28;122085;-73
2022/08/18 00:59:08;;;;;;;16.45;11.05;;;18.80;99.90;;;19.30;100.00;99131.72;5007874;28;130066;-74
2022/08/18 01:01:37;;;;;;;17.00;12.00;;;18.70;99.90;;;19.22;100.00;99130.06;5007099;28;129098;-74
2022/08/18 01:04:15;;;;;;;14.82;11.00;;;18.70;99.90;;;19.21;100.00;99131.25;5022162;28;119660;-74
2022/08/18 01:06:51;;;;;;;14.85;10.60;;;18.70;99.90;;;19.21;100.00;99139.50;5021825;28;119771;-73
2022/08/18 01:09:22;;;;;;;18.88;11.35;;;18.60;99.90;;;19.22;100.00;99135.56;5021649;28;129844;-72
2022/08/18 01:11:51;;;;;;;15.30;11.00;;;18.60;99.90;;;19.23;100.00;99131.66;5007113;28;128447;-73
2022/08/18 01:14:20;;;;;;;21.10;11.57;;;18.60;99.90;;;19.27;100.00;99126.19;5003961;28;119555;-73
2022/08/18 01:22:35;;;;;;;17.38;11.75;;;18.60;99.90;;;19.07;100.00;99118.13;5020454;27;129518;-73
2022/08/18 01:27:55;;;;;;;15.32;12.25;;;18.40;99.90;;;18.94;100.00;99128.63;5021789;28;119817;-73
2022/08/18 01:30:25;;;;;;;19.98;12.55;;;18.40;99.90;;;18.92;100.00;99125.47;5006481;28;128575;-73
2022/08/18 01:32:53;;;;;;;18.65;12.57;;;18.30;99.90;;;18.83;100.00;99130.44;5020880;28;130519;-73
2022/08/18 01:35:25;;;;;;;18.85;12.40;;;18.20;99.90;;;18.81;100.00;99133.56;5021493;28;120209;-73
2022/08/18 01:37:55;;;;;;;15.80;12.50;;;18.20;99.90;;;18.82;100.00;99128.84;5021889;28;119594;-73
2022/08/18 01:40:25;;;;;;;18.90;13.05;;;18.10;99.90;;;18.81;100.00;99133.56;5023243;28;129452;-73
2022/08/18 01:42:55;;;;;;;17.17;12.88;;;18.10;99.90;;;18.81;100.00;99135.53;5021235;28;130007;-73
2022/08/18 01:45:24;;;;;;;18.70;13.80;;;18.10;99.90;;;18.79;100.00;99135.09;5020140;28;122470;-73
2022/08/18 01:47:52;;;;;;;19.70;13.98;;;18.10;99.90;;;18.75;100.00;99132.31;5017114;28;121612;-73
2022/08/18 01:50:21;;;;;;;19.42;13.60;;;18.10;99.90;;;18.72;100.00;99124.81;5019807;28;130348;-73
2022/08/18 01:52:52;;;;;;;16.13;12.75;;;18.20;99.90;;;18.69;100.00;99120.84;5042282;27;130201;-72
2022/08/18 01:55:20;;;;;;;18.23;13.73;;;18.20;99.90;;;18.74;100.00;99132.69;5042916;27;120629;-72
2022/08/18 01:57:51;;;;;;;21.08;14.52;;;18.20;99.90;;;18.68;100.00;99129.47;5041748;27;119373;-71
2022/08/18 02:00:19;;;;;;;15.75;12.68;;;18.30;99.90;;;18.63;100.00;99127.84;5040784;27;130413;-72
2022/08/18 02:02:50;;;;;;;19.73;14.38;;;18.30;99.90;;;18.62;100.00;99125.47;5041312;27;130000;-75
2022/08/18 02:05:28;;;;;;;18.08;14.48;;;18.30;99.90;;;18.63;100.00;99122.34;5026536;27;118465;-74
2022/08/18 02:07:56;;;;;;;18.88;13.80;;;18.30;99.90;;;18.66;100.00;99116.09;5041052;27;119289;-73
2022/08/18 02:10:26;;;;;;;19.10;13.73;;;18.30;99.90;;;18.66;100.00;99116.09;5039765;27;130714;-73
2022/08/18 02:12:56;;;;;;;19.85;14.18;;;18.20;99.90;;;18.62;100.00;99115.31;5025995;27;128032;-74
2022/08/18 02:15:24;;;;;;;17.00;13.55;;;18.30;99.90;;;18.68;100.00;99108.31;5026197;27;118771;-72
2022/08/18 02:17:53;;;;;;;17.48;13.57;;;18.20;99.90;;;18.61;100.00;99115.69;5041015;27;119321;-70
2022/08/18 02:20:23;;;;;;;17.27;14.48;;;18.20;99.90;;;18.57;100.00;99118.34;5040936;27;130859;-74
2022/08/18 02:22:52;;;;;;;18.85;14.45;;;18.30;99.90;;;18.59;100.00;99109.75;5040774;27;129135;-73
2022/08/18 02:25:22;;;;;;;23.08;14.93;;;18.30;99.90;;;18.57;100.00;99115.59;5041208;27;119889;-71
2022/08/18 02:27:50;;;;;;;18.60;14.85;;;18.30;99.90;;;18.57;100.00;99110.13;5041370;27;119487;-75
2022/08/18 02:30:21;;;;;;;18.20;15.02;;;18.30;99.90;;;18.54;100.00;99113.59;5040657;27;129922;-72
2022/08/18 02:32:50;;;;;;;20.20;14.48;;;18.30;99.90;;;18.49;100.00;99108.47;5059588;27;128550;-74
2022/08/18 02:35:19;;;;;;;17.10;14.13;;;18.30;99.90;;;18.54;100.00;99108.13;5039420;27;121740;-72
2022/08/18 02:37:47;;;;;;;24.45;14.70;;;18.20;99.90;;;18.55;100.00;99115.19;5040618;27;121854;-75
2022/08/18 02:40:17;;;;;;;19.98;15.07;;;18.20;99.90;;;18.54;100.00;99110.88;5040093;27;130900;-72
2022/08/18 02:42:48;;;;;;;21.13;15.50;;;18.20;99.90;;;18.51;100.00;99117.09;5040379;27;130615;-74
2022/08/18 02:45:17;;;;;;;19.10;15.20;;;18.20;99.90;;;18.50;100.00;99121.81;5040553;27;119966;-74
2022/08/18 02:47:53;;;;;;;19.35;15.15;;;18.10;99.90;;;18.52;100.00;99126.94;5025471;27;119149;-74
2022/08/18 02:50:23;;;;;;;21.70;15.63;;;18.10;99.90;;;18.49;100.00;99122.97;5040360;27;130423;-73
2022/08/18 02:52:53;;;;;;;21.02;16.88;;;18.10;99.90;;;18.49;100.00;99124.94;5039193;27;130323;-75
2022/08/18 02:55:25;;;;;;;23.75;15.52;;;18.10;99.90;;;18.43;100.00;99123.69;5022684;27;120185;-74
2022/08/18 02:57:54;;;;;;;19.67;14.82;;;18.00;99.90;;;18.43;100.00;99124.50;5040447;27;119733;-74
2022/08/18 03:00:22;;;;;;;22.50;16.20;;;18.00;99.90;;;18.45;100.00;99132.34;5038929;27;129561;-74
2022/08/18 03:02:53;;;;;;;20.27;15.88;;;18.00;99.90;;;18.46;100.00;99129.22;5038850;27;129564;-74
2022/08/18 03:05:21;;;;;;;18.95;16.10;;;18.00;99.90;;;18.47;100.00;99132.78;5059112;27;119133;-74
2022/08/18 03:07:50;;;;;;;24.75;16.90;;;18.00;99.90;;;18.49;100.00;99133.19;5040654;27;120268;-75
2022/08/18 03:10:18;;;;;;;22.17;16.23;;;18.00;99.90;;;18.48;100.00;99131.59;5040186;27;129986;-72
2022/08/18 03:12:47;;;;;;;18.10;16.15;;;18.00;99.90;;;18.47;100.00;99135.53;5039760;27;130035;-75
2022/08/18 03:15:16;;;;;;;17.92;15.85;;;18.00;99.90;;;18.52;100.00;99142.66;5040543;27;120088;-73
2022/08/18 03:17:45;;;;;;;23.75;15.77;;;18.00;99.90;;;18.50;100.00;99140.28;5040758;27;119188;-72
2022/08/18 03:20:15;;;;;;;19.85;16.27;;;18.00;99.90;;;18.47;100.00;99144.56;5039672;27;129938;-73
2022/08/18 03:22:44;;;;;;;18.77;15.35;;;17.90;99.90;;;18.52;100.00;99146.19;5025041;27;129617;-73
2022/08/18 03:25:13;;;;;;;21.63;15.35;;;17.90;99.90;;;18.56;100.00;99144.28;5039125;27;122060;-73
2022/08/18 03:27:41;;;;;;;21.65;16.77;;;17.90;99.90;;;18.63;100.00;99141.59;5039852;27;121864;-72
2022/08/18 03:30:10;;;;;;;23.67;15.55;;;18.00;99.90;;;18.68;100.00;99148.72;5038118;27;130524;-73
2022/08/18 03:32:40;;;;;;;19.88;15.85;;;18.00;99.90;;;18.73;100.00;99151.16;5038752;27;129564;-71
2022/08/18 03:35:09;;;;;;;22.98;16.02;;;18.00;99.90;;;18.80;100.00;99164.19;5038843;27;119583;-72
2022/08/18 03:37:39;;;;;;;19.45;15.30;;;18.10;99.90;;;18.85;100.00;99161.94;5030704;27;119896;-74
2022/08/18 03:40:10;;;;;;;18.38;15.13;;;18.10;99.90;;;18.88;100.00;99163.13;5036693;27;130231;-73
2022/08/18 03:42:39;;;;;;;17.90;14.60;;;18.20;99.90;;;18.88;100.00;99160.38;5021399;27;129503;-73
2022/08/18 03:45:09;;;;;;;22.27;15.88;;;18.20;99.90;;;18.91;100.00;99159.63;5024983;27;119578;-74
2022/08/18 03:47:38;;;;;;;21.70;14.40;;;18.30;99.90;;;18.98;100.00;99173.47;5024754;27;119675;-73
2022/08/18 03:50:09;;;;;;;21.83;14.20;;;18.30;99.90;;;19.08;100.00;99168.44;5042024;27;129851;-73
2022/08/18 03:52:39;;;;;;;20.00;13.60;;;18.40;99.90;;;19.14;100.00;99180.69;5042455;27;129529;-73
2022/08/18 03:55:09;;;;;;;18.65;13.50;;;18.50;99.90;;;19.23;100.00;99175.69;5043312;27;119563;-74
2022/08/18 03:57:37;;;;;;;19.83;13.43;;;18.60;99.90;;;19.31;100.00;99188.31;5062562;27;118495;-74
2022/08/18 04:00:10;;;;;;;17.30;13.20;;;18.70;99.90;;;19.36;100.00;99179.72;5042491;27;130914;-71
2022/08/18 04:02:40;;;;;;;21.55;13.25;;;18.70;99.90;;;19.33;100.00;99185.97;5025141;27;129445;-72
2022/08/18 04:05:11;;;;;;;19.80;14.10;;;18.70;99.90;;;19.43;100.00;99190.03;5042565;27;119655;-75
2022/08/18 04:07:41;;;;;;;16.80;13.27;;;18.80;99.90;;;19.46;100.00;99186.53;5042664;27;119530;-73
2022/08/18 04:10:11;;;;;;;15.25;12.57;;;18.80;99.90;;;19.50;100.00;99190.06;5040859;27;130832;-73
2022/08/18 04:12:41;;;;;;;15.40;12.00;;;18.90;99.90;;;19.59;100.00;99192.53;5037327;27;129390;-73
2022/08/18 04:15:11;;;;;;;17.15;12.48;;;18.90;99.90;;;19.63;100.00;99193.31;5043333;27;120923;-73
2022/08/18 04:17:40;;;;;;;16.98;13.13;;;19.00;99.90;;;19.77;100.00;99202.91;5039569;27;122026;-73
2022/08/18 04:20:11;;;;;;;20.20;12.43;;;19.10;99.90;;;19.81;100.00;99201.78;5042319;27;130081;-73
2022/08/18 04:22:41;;;;;;;16.40;11.50;;;19.20;99.90;;;19.90;100.00;99198.72;5021013;27;130256;-74
2022/08/18 04:25:10;;;;;;;15.65;11.35;;;19.20;99.90;;;19.99;100.00;99196.41;5027475;27;118412;-72
2022/08/18 04:27:41;;;;;;;15.80;11.55;;;19.30;99.90;;;20.07;100.00;99195.28;5042094;27;119473;-73
2022/08/18 04:30:11;;;;;;;19.45;11.48;;;19.30;99.90;;;20.16;100.00;99197.69;5023699;27;130090;-72
2022/08/18 04:32:40;;;;;;;18.00;11.45;;;19.40;99.90;;;20.22;100.00;99201.66;5021280;27;129781;-73
2022/08/18 04:35:09;;;;;;;24.70;12.43;;;19.40;99.90;;;20.34;100.00;99206.09;5039207;27;119728;-74
2022/08/18 04:37:38;;;;;;;19.38;12.60;;;19.50;99.90;;;20.40;100.00;99204.53;5042270;27;119348;-73
2022/08/18 04:40:10;;;;;;;21.55;13.27;;;19.60;99.90;;;20.47;100.00;99196.31;5025754;27;129217;-75
2022/08/18 04:42:38;;;;;;;15.90;10.82;;;19.60;99.90;;;20.55;100.00;99201.84;5039782;27;129950;-75
2022/08/18 04:45:08;;;;;;;16.23;11.45;;;19.70;99.90;;;20.62;100.00;99190.88;5042148;27;119978;-75
2022/08/18 04:47:40;;;;;;;15.95;10.63;;;19.80;99.90;;;20.73;100.00;99196.47;5041550;27;119472;-77
2022/08/18 04:50:10;;;;;;;15.43;10.95;;;19.90;99.90;;;20.88;100.00;99200.06;5041988;27;130032;-73
2022/08/18 04:55:28;;;;;;;15.13;9.70;;;20.00;99.90;;;20.97;99.27;99192.22;5042531;27;120179;-77
2022/08/18 04:57:56;;;;;;;13.32;10.05;;;20.10;99.90;;;21.05;98.31;99202.09;5041825;27;119357;-73
2022/08/18 05:00:25;;;;;;;14.00;9.43;;;20.20;99.90;;;21.11;97.22;99197.75;5043782;27;129662;-76
2022/08/18 05:02:53;;;;;;;12.63;8.88;;;20.20;99.90;;;21.18;96.20;99199.78;5039392;27;129609;-75
2022/08/18 05:05:23;;;;;;;12.73;9.23;;;20.30;99.90;;;21.24;95.31;99202.91;5040904;27;122584;-74
2022/08/18 05:07:51;;;;;;;19.65;8.90;;;20.40;99.90;;;21.32;94.71;99204.53;5042297;27;121737;-73
2022/08/18 05:10:20;;;;;;;12.73;8.77;;;20.40;99.90;;;21.28;94.21;99200.97;5041991;27;129909;-72
2022/08/18 05:12:50;;;;;;;15.65;9.00;;;20.40;99.90;;;21.27;93.93;99204.91;5023343;27;129456;-74
2022/08/18 05:15:19;;;;;;;12.38;8.30;;;20.40;99.90;;;21.34;93.65;99202.94;5042173;27;120119;-73
2022/08/18 05:17:47;;;;;;;12.63;8.20;;;20.50;99.90;;;21.48;93.41;99207.69;5042360;27;119733;-75
2022/08/18 05:20:16;;;;;;;15.57;8.55;;;20.50;99.90;;;21.62;92.71;99200.66;5041709;27;129970;-74
2022/08/18 05:22:45;;;;;;;13.40;9.18;;;20.60;99.90;;;21.72;91.44;99210.91;5027197;27;129060;-74
2022/08/18 05:25:14;;;;;;;14.77;9.18;;;20.60;99.90;;;21.82;91.22;99204.59;5041371;27;119820;-74
2022/08/18 05:27:43;;;;;;;14.07;8.90;;;20.70;99.90;;;21.86;90.91;99204.59;5043790;27;119135;-74
2022/08/18 05:30:14;;;;;;;17.00;8.88;;;20.80;99.90;;;21.90;89.76;99206.16;5039780;27;130126;-75
2022/08/18 05:32:46;;;;;;;13.18;8.80;;;20.80;99.90;;;21.88;89.70;99203.03;5041177;27;129323;-74
2022/08/18 05:35:23;;;;;;;14.02;8.02;;;20.80;99.90;;;21.98;89.34;99206.19;5043240;27;119673;-75
2022/08/18 05:38:14;;;;;;;14.88;8.90;;;20.90;99.90;;;22.04;88.92;99208.13;5041868;27;119586;-73
2022/08/18 05:40:44;;;;;;;15.30;8.70;;;20.90;99.90;;;22.20;88.10;99221.53;5041662;27;129820;-72
2022/08/18 05:43:15;;;;;;;14.52;8.35;;;21.10;94.40;;;22.25;87.44;99209.28;5041258;27;130262;-72
2022/08/18 05:45:44;;;;;;;14.63;9.18;;;21.10;94.50;;;22.21;87.16;99220.34;5026510;27;118792;-74
2022/08/18 05:48:14;;;;;;;11.70;8.27;;;21.10;94.50;;;22.19;87.03;99217.22;5049746;27;119622;-73
2022/08/18 05:50:43;;;;;;;15.07;8.65;;;21.00;94.40;;;22.32;87.54;99225.91;5061403;27;130137;-74
2022/08/18 05:53:18;;;;;;;14.88;8.23;;;21.10;94.50;;;22.50;85.43;99216.75;5061691;27;130303;-74
2022/08/18 05:58:51;;;;;;;15.50;8.48;;;21.30;87.20;;;22.57;84.67;99208.47;5060806;27;122122;-73
2022/08/18 06:01:27;;;;;;;16.30;8.52;;;21.30;85.20;;;22.76;84.03;99209.97;5061987;27;130032;-73
2022/08/18 06:04:01;;;;;;;15.43;8.57;;;21.40;83.80;;;22.85;83.59;99202.03;5036913;27;130269;-74
2022/08/18 06:06:33;;;;;;;16.20;7.45;;;21.50;77.10;;;22.98;82.25;99200.41;5041156;27;119208;-74
2022/08/18 06:09:13;;;;;;;19.00;8.05;;;21.60;60.60;;;23.10;81.81;99201.16;5022540;27;119341;-74
2022/08/18 06:11:43;;;;;;;15.55;8.50;;;21.70;58.00;;;23.38;80.49;99202.97;5025641;27;129469;-73
2022/08/18 06:14:12;;;;;;;13.40;8.05;;;21.90;49.30;;;23.63;79.87;99199.22;5026179;27;129170;-74
2022/08/18 06:17:04;;;;;;;12.50;7.82;;;22.20;39.20;;;23.99;77.79;99198.97;5041052;27;119411;-74
2022/08/18 06:19:48;;;;;;;14.65;7.85;;;22.50;24.20;;;24.30;75.82;99208.16;5040843;27;119570;-74
2022/08/18 06:22:30;;;;;;;15.23;8.40;;;22.70;15.40;;;24.46;73.30;99209.56;5020941;27;130611;-74
2022/08/18 06:25:06;;;;;;;13.93;7.88;;;22.90;1.00;;;24.87;72.71;99208.72;5040246;27;129552;-75
2022/08/18 06:27:54;;;;;;;15.38;7.28;;;23.20;1.00;;;25.18;70.37;99208.72;5040101;27;120159;-74
2022/08/18 06:30:31;;;;;;;15.50;7.90;;;23.40;1.00;;;25.34;69.03;99206.16;5041001;27;120030;-73
2022/08/18 06:33:24;;;;;;;16.48;7.55;;;23.60;1.00;;;25.33;68.29;99210.13;5040044;27;129811;-74
2022/08/18 06:36:02;;;;;;;12.30;6.85;;;23.60;1.00;;;25.61;68.65;99197.00;5022086;27;129733;-74
2022/08/18 06:38:45;;;;;;;11.05;6.75;;;23.80;1.00;;;25.91;66.09;99207.22;5040761;27;119388;-72
2022/08/18 06:41:18;;;;;;;10.93;6.97;;;24.00;1.00;;;26.25;66.17;99211.03;5040754;27;119902;-76
2022/08/18 06:43:59;;;;;;;13.35;6.25;;;24.30;1.00;;;26.60;63.78;99209.59;5040071;27;130077;-77
2022/08/18 06:46:41;;;;;;;11.40;6.32;;;24.60;1.00;;;27.04;61.70;99215.06;5041598;27;129702;-78
2022/08/18 06:49:18;;;;;;;8.00;5.90;;;24.70;1.00;;;27.37;60.90;99209.59;5009205;28;121109;-75
2022/08/18 06:51:47;;;;;;;8.70;5.80;;;25.00;1.00;;;27.65;57.51;99221.31;5020139;28;121631;-78
2022/08/18 06:54:30;;;;;;;11.95;5.70;;;25.20;1.00;;;27.48;57.95;99214.94;4998232;28;128808;-73
2022/08/18 06:57:00;;;;;;;12.77;6.03;;;25.10;1.00;;;27.52;57.82;99216.41;5001070;28;130054;-73
2022/08/18 06:59:31;;;;;;;11.15;6.57;;;25.20;1.00;;;27.68;57.97;99209.28;5018924;28;119769;-72
2022/08/18 07:02:22;;;;;;;10.75;6.55;;;25.30;1.00;;;27.42;57.01;99211.88;5020011;28;119512;-71
2022/08/18 07:05:05;;;;;;;13.38;6.10;;;25.20;1.00;;;27.58;57.51;99206.31;5019587;28;130434;-72
2022/08/18 07:07:38;;;;;;;8.82;5.63;;;25.40;1.00;;;27.48;57.17;99214.94;5019753;28;129676;-71
2022/08/18 07:10:29;;;;;;;12.73;5.97;;;25.40;1.00;;;27.52;57.10;99210.03;5019621;28;119605;-74
2022/08/18 07:13:18;;;;;;;8.77;5.75;;;25.50;1.00;;;28.22;55.27;99217.09;5019674;28;120072;-72
2022/08/18 07:15:48;;;;;;;10.15;5.88;;;26.10;1.00;;;28.49;53.89;99219.53;5017951;28;130111;-73
2022/08/18 07:18:25;;;;;;;10.90;5.88;;;26.40;1.00;;;28.57;54.00;99219.34;5004841;28;128480;-74
2022/08/18 07:21:00;;;;;;;10.07;5.65;;;26.40;1.00;;;28.25;53.72;99221.81;5018440;28;119613;-73
2022/08/18 07:23:33;;;;;;;10.75;5.97;;;26.10;1.00;;;28.71;53.08;99224.56;5001614;28;119123;-73
2022/08/18 07:26:09;;;;;;;12.63;5.22;;;26.40;1.00;;;28.90;53.42;99225.59;5019327;28;129917;-73
2022/08/18 07:28:43;;;;;;;11.52;5.47;;;26.60;1.00;;;28.60;52.43;99224.84;4987808;28;128209;-73
2022/08/18 07:31:40;;;;;;;10.98;5.82;;;26.30;1.00;;;28.81;52.15;99225.47;5019914;28;119672;-72
2022/08/18 07:34:13;;;;;;;10.20;5.63;;;26.50;1.00;;;28.73;52.27;99238.06;5020539;28;118951;-72
2022/08/18 07:36:50;;;;;;;13.98;5.07;;;26.40;1.00;;;29.00;52.17;99244.06;5019361;28;129824;-74
2022/08/18 07:39:26;;;;;;;13.15;5.60;;;26.80;1.00;;;29.04;52.11;99247.53;5019321;28;129507;-74
2022/08/18 07:42:03;;;;;;;12.00;6.60;;;26.70;1.00;;;29.15;52.01;99235.25;5018266;28;121863;-73
2022/08/18 07:44:45;;;;;;;13.15;6.20;;;26.80;1.00;;;29.12;51.94;99241.72;5004353;28;120868;-73
2022/08/18 07:47:19;;;;;;;9.82;4.95;;;26.80;1.00;;;28.96;48.66;99246.16;5019068;28;130502;-75
2022/08/18 07:49:48;;;;;;;9.27;5.15;;;26.70;1.00;;;28.93;49.25;99247.06;5020859;28;129199;-72
2022/08/18 07:52:22;;;;;;;12.07;5.60;;;26.70;1.00;;;29.30;49.31;99247.59;5001472;28;120195;-73
2022/08/18 07:55:03;;;;;;;8.55;4.82;;;27.10;1.00;;;29.53;48.02;99254.06;5019122;28;120068;-72
2022/08/18 07:57:44;;;;;;;9.25;5.50;;;27.20;1.00;;;29.00;48.24;99243.25;5018593;28;130407;-73
2022/08/18 08:00:22;;;;;;;12.88;5.55;;;26.90;1.00;;;29.25;47.98;99247.34;5019194;28;129571;-74
2022/08/18 08:03:06;;;;;;;9.00;4.20;;;27.10;1.00;;;29.22;48.25;99241.44;5019421;28;120115;-70
2022/08/18 08:05:43;;;;;;;8.63;4.82;;;27.10;1.00;;;29.24;48.59;99241.00;5004571;28;118300;-73
2022/08/18 08:08:23;;;;;;;10.65;4.97;;;27.10;1.00;;;28.98;45.87;99238.13;5002872;28;129270;-77
2022/08/18 08:11:09;;;;;;;11.18;4.57;;;27.00;1.00;;;29.00;47.48;99246.06;5018793;28;129377;-75
2022/08/18 08:13:58;;;;;;;12.77;4.65;;;27.10;1.00;;;29.11;47.10;99235.38;5004318;28;119252;-74
2022/08/18 08:16:43;;;;;;;10.30;4.65;;;27.10;1.00;;;29.27;46.46;99237.31;5018783;28;119560;-76
2022/08/18 08:19:37;;;;;;;9.18;4.63;;;27.30;1.00;;;29.60;46.95;99237.09;5018671;28;130627;-74
2022/08/18 08:22:12;;;;;;;8.20;5.10;;;27.60;1.00;;;29.51;45.48;99245.38;5003883;28;129476;-73
2022/08/18 08:24:59;;;;;;;7.53;4.68;;;27.50;1.00;;;28.92;46.70;99239.94;5018962;28;119771;-73
2022/08/18 08:27:49;;;;;;;9.30;5.13;;;27.10;1.00;;;28.41;48.50;99234.16;5019016;28;119374;-73
2022/08/18 08:30:21;;;;;;;8.70;4.82;;;26.80;1.00;;;28.36;48.92;99229.09;5018545;28;130447;-73
2022/08/18 08:33:06;;;;;;;9.82;5.00;;;26.70;1.00;;;28.58;48.90;99227.31;5020796;28;130351;-73
2022/08/18 08:35:44;;;;;;;15.18;5.55;;;26.90;1.00;;;28.93;48.82;99224.72;5020824;28;121978;-73
2022/08/18 08:38:19;;;;;;;7.85;4.80;;;27.10;1.00;;;28.85;48.47;99231.75;5021865;28;122251;-75
2022/08/18 08:40:59;;;;;;;12.68;5.00;;;27.30;1.00;;;28.96;48.40;99223.06;5021991;28;130370;-73
2022/08/18 08:43:34;;;;;;;16.55;5.10;;;27.40;1.00;;;28.98;47.20;99221.38;5021593;28;130880;-74
2022/08/18 08:46:11;;;;;;;10.98;5.47;;;27.60;1.00;;;29.13;47.40;99227.31;5022355;28;119430;-75
2022/08/18 08:48:46;;;;;;;8.57;5.20;;;27.80;1.00;;;29.13;46.21;99232.13;5033902;27;120338;-75
2022/08/18 08:51:38;;;;;;;11.95;4.80;;;27.80;1.00;;;29.76;46.48;99233.38;5041993;27;130439;-75
2022/08/18 08:54:15;;;;;;;8.85;4.72;;;28.20;1.00;;;30.18;45.41;99229.63;5042039;27;130769;-73
2022/08/18 08:56:49;;;;;;;10.77;5.72;;;28.50;1.00;;;30.45;44.47;99221.50;5042124;27;120284;-74
2022/08/18 08:59:24;;;;;;;13.18;5.65;;;28.70;1.00;;;30.11;44.30;99228.63;5042286;27;119671;-75
2022/08/18 09:02:23;;;;;;;10.90;4.70;;;28.30;1.00;;;29.88;44.45;99229.03;5040521;27;130181;-73
2022/08/18 09:05:04;;;;;;;10.05;4.32;;;28.40;1.00;;;30.28;43.54;99223.66;5041932;27;129968;-74
2022/08/18 09:07:59;;;;;;;8.88;4.65;;;28.70;1.00;;;30.10;43.56;99227.06;5042033;27;119989;-73
2022/08/18 09:11:04;;;;;;;12.18;5.20;;;28.40;1.00;;;29.72;44.62;99233.50;5042553;27;120075;-72
2022/08/18 09:13:57;;;;;;;12.75;4.68;;;28.40;1.00;;;29.81;44.32;99232.84;5026785;27;129418;-74
2022/08/18 09:16:45;;;;;;;9.88;5.13;;;28.50;1.00;;;30.05;43.41;99224.84;5022776;27;129252;-77
2022/08/18 09:19:58;;;;;;;9.48;4.72;;;28.60;1.00;;;30.54;44.58;99222.78;5041868;27;120164;-76
2022/08/18 09:22:41;;;;;;;8.75;4.28;;;28.90;1.00;;;30.88;43.55;99223.97;5039425;27;119647;-73
2022/08/18 09:25:11;;;;;;;7.00;3.97;;;29.20;1.00;;;30.78;41.39;99226.69;5040997;27;129820;-73
2022/08/18 09:27:44;;;;;;;7.70;4.53;;;29.10;1.00;;;30.78;41.40;99221.09;5040938;27;130647;-72
2022/08/18 09:30:43;;;;;;;10.60;4.45;;;29.20;1.00;;;30.66;41.84;99224.75;5040288;27;122068;-74
2022/08/18 09:33:30;;;;;;;11.65;4.60;;;29.00;1.00;;;31.13;40.41;99218.19;5041368;27;121350;-75
2022/08/18 09:36:23;;;;;;;8.05;4.25;;;29.30;1.00;;;31.18;39.69;99220.41;5042814;27;129787;-74
2022/08/18 09:41:54;;;;;;;6.93;3.92;;;29.70;1.00;;;31.11;38.32;99226.28;5041405;27;119771;-77
2022/08/18 09:45:00;;;;;;;9.07;4.18;;;29.40;1.00;;;31.77;38.76;99225.31;5040231;27;119876;-75
2022/08/18 09:48:38;;;;;;;8.75;4.25;;;29.80;1.00;;;32.28;37.61;99223.25;5024864;27;129372;-71
2022/08/18 09:51:36;;;;;;;5.47;3.60;;;30.20;1.00;;;31.94;35.52;99216.63;4975153;28;128126;-73
2022/08/18 09:54:14;;;;;;;6.28;3.15;;;29.90;1.00;;;31.41;35.73;99225.97;5021397;28;120120;-71
2022/08/18 09:57:21;;;;;;;7.43;3.50;;;29.80;1.00;;;31.52;37.08;99227.09;5021044;28;119460;-75
2022/08/18 10:00:25;;;;;;;7.80;3.42;;;29.90;1.00;;;31.34;37.00;99215.81;5004885;28;129618;-72
2022/08/18 10:03:13;;;;;;;11.98;4.75;;;29.70;1.00;;;30.80;38.99;99215.81;5019850;28;128824;-72
2022/08/18 10:06:18;;;;;;;9.50;4.40;;;29.40;1.00;;;30.94;39.09;99222.13;4989048;28;119046;-76
2022/08/18 10:09:24;;;;;;;8.60;4.32;;;29.40;1.00;;;31.21;40.09;99217.94;5020770;28;119356;-72
2022/08/18 10:12:29;;;;;;;7.82;4.43;;;29.70;1.00;;;31.97;38.01;99212.91;5020226;28;130149;-74
2022/08/18 10:15:47;;;;;;;8.40;4.40;;;30.10;1.00;;;31.36;38.41;99213.31;5020039;28;130324;-72
2022/08/18 10:18:50;;;;;;;6.93;4.13;;;29.50;1.00;;;31.64;38.67;99210.66;5020305;28;119979;-74
2022/08/18 10:21:27;;;;;;;8.55;4.22;;;29.90;1.00;;;31.76;38.36;99206.94;5020763;28;120157;-72
2022/08/18 10:23:59;;;;;;;7.03;4.50;;;29.90;1.00;;;31.41;38.70;99209.91;5020314;28;130796;-71
2022/08/18 10:27:14;;;;;;;10.80;4.45;;;29.40;1.00;;;30.94;40.40;99216.53;5008942;28;129875;-72
2022/08/18 10:29:51;;;;;;;10.18;4.70;;;29.40;1.00;;;31.23;40.59;99233.06;4984034;28;120691;-72
2022/08/18 10:32:41;;;;;;;8.25;4.35;;;29.80;1.00;;;31.07;40.44;99219.25;4985280;28;122833;-77
2022/08/18 10:35:57;;;;;;;7.90;4.60;;;29.50;1.00;;;32.13;39.77;99209.81;4984832;28;129340;-74
2022/08/18 10:38:45;;;;;;;8.32;4.93;;;30.20;1.00;;;32.39;38.66;99212.31;4989553;28;129277;-77
2022/08/18 10:41:24;;;;;;;9.57;4.55;;;30.30;1.00;;;32.02;38.88;99207.44;4998289;28;119662;-75
2022/08/18 10:43:56;;;;;;;9.27;4.50;;;30.00;1.00;;;32.35;38.52;99217.28;4999146;28;119614;-75
2022/08/18 10:46:29;;;;;;;10.05;4.72;;;30.50;1.00;;;32.78;37.35;99215.41;4999343;28;130713;-73
2022/08/18 10:49:08;;;;;;;6.97;4.20;;;30.80;1.00;;;32.51;37.47;99216.22;5014119;28;129677;-73
2022/08/18 10:52:08;;;;;;;9.05;4.45;;;30.40;1.00;;;32.83;37.06;99223.19;5019985;28;120055;-72
2022/08/18 10:54:59;;;;;;;8.98;4.35;;;30.70;1.00;;;32.85;36.89;99231.94;5019611;27;119644;-70
2022/08/18 10:57:38;;;;;;;9.05;4.28;;;30.60;1.00;;;32.91;37.55;99232.88;5018590;28;129842;-75
2022/08/18 11:00:12;;;;;;;8.05;3.72;;;30.90;1.00;;;33.18;35.90;99236.88;5004842;28;128408;-74